sensor_id;sensor_type;location;lat;lon;timestamp;temperature;humidity
4530;DHT22;2277;51.626;7.516;2024-03-02T00:00:51;9.00;99.90
4530;DHT22;2277;51.626;7.516;2024-03-02T00:03:18;9.10;99.90
4530;DHT22;2277;51.626;7.516;2024-03-02T00:05:43;9.10;99.90
4530;DHT22;2277;51.626;7.516;2024-03-02T00:08:09;9.00;99.90
4530;DHT22;2277;51.626;7.516;2024-03-02T00:10:39;9.00;99.90
4530;DHT22;2277;51.626;7.516;2024-03-02T00:13:10;9.00;99.90
4530;DHT22;2277;51.626;7.516;2024-03-02T00:15:42;9.00;99.90
4530;DHT22;2277;51.626;7.516;2024-03-02T00:18:11;9.00;99.90
4530;DHT22;2277;51.626;7.516;2024-03-02T00:20:37;9.00;99.90
4530;DHT22;2277;51.626;7.516;2024-03-02T00:23:04;8.90;99.90
4530;DHT22;2277;51.626;7.516;2024-03-02T00:25:49;8.90;99.90
4530;DHT22;2277;51.626;7.516;2024-03-02T00:28:24;8.90;99.90
4530;DHT22;2277;51.626;7.516;2024-03-02T00:33:16;9.00;99.90
4530;DHT22;2277;51.626;7.516;2024-03-02T00:35:44;9.00;99.90
4530;DHT22;2277;51.626;7.516;2024-03-02T00:38:10;9.00;99.90
4530;DHT22;2277;51.626;7.516;2024-03-02T00:40:36;9.00;99.90
4530;DHT22;2277;51.626;7.516;2024-03-02T00:43:02;9.00;99.90
4530;DHT22;2277;51.626;7.516;2024-03-02T00:45:29;9.10;99.90
4530;DHT22;2277;51.626;7.516;2024-03-02T00:47:54;9.10;99.90
4530;DHT22;2277;51.626;7.516;2024-03-02T00:50:20;9.20;99.90
4530;DHT22;2277;51.626;7.516;2024-03-02T00:52:47;9.10;99.90
4530;DHT22;2277;51.626;7.516;2024-03-02T00:55:15;9.10;99.90
4530;DHT22;2277;51.626;7.516;2024-03-02T00:57:41;9.10;99.90
4530;DHT22;2277;51.626;7.516;2024-03-02T01:00:07;9.20;99.90
4530;DHT22;2277;51.626;7.516;2024-03-02T01:02:35;9.30;99.90
4530;DHT22;2277;51.626;7.516;2024-03-02T01:05:01;9.40;99.90
4530;DHT22;2277;51.626;7.516;2024-03-02T01:07:26;9.50;99.90
4530;DHT22;2277;51.626;7.516;2024-03-02T01:09:52;9.60;99.90
4530;DHT22;2277;51.626;7.516;2024-03-02T01:12:18;9.50;99.90
4530;DHT22;2277;51.626;7.516;2024-03-02T01:14:43;9.50;99.90
4530;DHT22;2277;51.626;7.516;2024-03-02T01:17:09;9.40;99.90
4530;DHT22;2277;51.626;7.516;2024-03-02T01:19:34;9.50;99.90
4530;DHT22;2277;51.626;7.516;2024-03-02T01:22:00;9.50;99.90
4530;DHT22;2277;51.626;7.516;2024-03-02T01:24:25;9.40;99.90
4530;DHT22;2277;51.626;7.516;2024-03-02T01:26:51;9.60;99.90
4530;DHT22;2277;51.626;7.516;2024-03-02T01:29:16;9.60;99.90
4530;DHT22;2277;51.626;7.516;2024-03-02T01:31:42;9.60;99.90
4530;DHT22;2277;51.626;7.516;2024-03-02T01:34:08;9.50;99.90
4530;DHT22;2277;51.626;7.516;2024-03-02T01:36:34;9.50;99.90
4530;DHT22;2277;51.626;7.516;2024-03-02T01:38:59;9.70;99.90
4530;DHT22;2277;51.626;7.516;2024-03-02T01:41:25;9.70;99.90
4530;DHT22;2277;51.626;7.516;2024-03-02T01:43:51;9.70;99.90
4530;DHT22;2277;51.626;7.516;2024-03-02T01:46:16;9.80;99.90
4530;DHT22;2277;51.626;7.516;2024-03-02T01:48:42;9.90;99.90
4530;DHT22;2277;51.626;7.516;2024-03-02T01:51:08;10.00;99.90
4530;DHT22;2277;51.626;7.516;2024-03-02T01:53:34;9.90;99.90
4530;DHT22;2277;51.626;7.516;2024-03-02T01:56:00;9.80;99.90
4530;DHT22;2277;51.626;7.516;2024-03-02T01:58:27;9.80;99.90
4530;DHT22;2277;51.626;7.516;2024-03-02T02:00:52;9.80;99.90
4530;DHT22;2277;51.626;7.516;2024-03-02T02:03:18;9.90;99.90
4530;DHT22;2277;51.626;7.516;2024-03-02T02:05:44;9.80;99.90
4530;DHT22;2277;51.626;7.516;2024-03-02T02:08:09;9.80;99.90
4530;DHT22;2277;51.626;7.516;2024-03-02T02:10:36;9.80;99.90
4530;DHT22;2277;51.626;7.516;2024-03-02T02:13:01;10.00;99.90
4530;DHT22;2277;51.626;7.516;2024-03-02T02:15:31;9.90;99.90
4530;DHT22;2277;51.626;7.516;2024-03-02T02:17:58;10.10;99.90
4530;DHT22;2277;51.626;7.516;2024-03-02T02:20:24;9.90;99.90
4530;DHT22;2277;51.626;7.516;2024-03-02T02:22:57;9.90;99.90
4530;DHT22;2277;51.626;7.516;2024-03-02T02:25:24;9.90;99.90
4530;DHT22;2277;51.626;7.516;2024-03-02T02:27:49;9.90;99.90
4530;DHT22;2277;51.626;7.516;2024-03-02T02:30:19;10.10;99.90
4530;DHT22;2277;51.626;7.516;2024-03-02T02:32:46;10.00;99.90
4530;DHT22;2277;51.626;7.516;2024-03-02T02:35:11;10.00;99.90
4530;DHT22;2277;51.626;7.516;2024-03-02T02:37:38;9.80;99.90
4530;DHT22;2277;51.626;7.516;2024-03-02T02:40:04;9.90;99.90
4530;DHT22;2277;51.626;7.516;2024-03-02T02:42:30;9.80;99.90
4530;DHT22;2277;51.626;7.516;2024-03-02T02:44:56;9.80;99.90
4530;DHT22;2277;51.626;7.516;2024-03-02T02:47:21;9.70;99.90
4530;DHT22;2277;51.626;7.516;2024-03-02T02:49:47;9.60;99.90
4530;DHT22;2277;51.626;7.516;2024-03-02T02:52:12;9.70;99.90
4530;DHT22;2277;51.626;7.516;2024-03-02T02:54:38;9.70;99.90
4530;DHT22;2277;51.626;7.516;2024-03-02T02:57:04;9.70;99.90
4530;DHT22;2277;51.626;7.516;2024-03-02T02:59:29;9.60;99.90
4530;DHT22;2277;51.626;7.516;2024-03-02T03:01:55;9.70;99.90
4530;DHT22;2277;51.626;7.516;2024-03-02T03:04:20;9.70;99.90
4530;DHT22;2277;51.626;7.516;2024-03-02T03:06:46;9.80;99.90
4530;DHT22;2277;51.626;7.516;2024-03-02T03:09:11;9.90;99.90
4530;DHT22;2277;51.626;7.516;2024-03-02T03:11:37;9.80;99.90
4530;DHT22;2277;51.626;7.516;2024-03-02T03:14:03;9.80;99.90
4530;DHT22;2277;51.626;7.516;2024-03-02T03:16:30;9.80;99.90
4530;DHT22;2277;51.626;7.516;2024-03-02T03:18:56;9.70;99.90
4530;DHT22;2277;51.626;7.516;2024-03-02T03:21:21;9.70;99.90
4530;DHT22;2277;51.626;7.516;2024-03-02T03:23:47;9.80;99.90
4530;DHT22;2277;51.626;7.516;2024-03-02T03:26:12;9.80;99.90
4530;DHT22;2277;51.626;7.516;2024-03-02T03:28:38;9.70;99.90
4530;DHT22;2277;51.626;7.516;2024-03-02T03:31:04;9.80;99.90
4530;DHT22;2277;51.626;7.516;2024-03-02T03:33:29;10.00;99.90
4530;DHT22;2277;51.626;7.516;2024-03-02T03:35:55;10.00;99.90
4530;DHT22;2277;51.626;7.516;2024-03-02T03:38:20;9.80;99.90
4530;DHT22;2277;51.626;7.516;2024-03-02T03:40:46;9.80;99.90
4530;DHT22;2277;51.626;7.516;2024-03-02T03:43:12;9.80;99.90
4530;DHT22;2277;51.626;7.516;2024-03-02T03:45:38;9.80;99.90
4530;DHT22;2277;51.626;7.516;2024-03-02T03:48:04;9.90;99.90
4530;DHT22;2277;51.626;7.516;2024-03-02T03:50:29;9.80;99.90
4530;DHT22;2277;51.626;7.516;2024-03-02T03:52:55;9.60;99.90
4530;DHT22;2277;51.626;7.516;2024-03-02T03:55:21;9.70;99.90
4530;DHT22;2277;51.626;7.516;2024-03-02T03:57:46;9.60;99.90
4530;DHT22;2277;51.626;7.516;2024-03-02T04:00:12;9.60;99.90
4530;DHT22;2277;51.626;7.516;2024-03-02T04:02:38;9.50;99.90
4530;DHT22;2277;51.626;7.516;2024-03-02T04:05:04;9.60;99.90
4530;DHT22;2277;51.626;7.516;2024-03-02T04:07:37;9.60;99.90
4530;DHT22;2277;51.626;7.516;2024-03-02T04:10:10;9.60;99.90
4530;DHT22;2277;51.626;7.516;2024-03-02T04:12:38;9.60;99.90
4530;DHT22;2277;51.626;7.516;2024-03-02T04:15:05;9.60;99.90
4530;DHT22;2277;51.626;7.516;2024-03-02T04:17:32;9.60;99.90
4530;DHT22;2277;51.626;7.516;2024-03-02T04:19:58;9.60;99.90
4530;DHT22;2277;51.626;7.516;2024-03-02T04:22:25;9.60;99.90
4530;DHT22;2277;51.626;7.516;2024-03-02T04:24:51;9.70;99.90
4530;DHT22;2277;51.626;7.516;2024-03-02T04:27:16;9.60;99.90
4530;DHT22;2277;51.626;7.516;2024-03-02T04:29:42;9.60;99.90
4530;DHT22;2277;51.626;7.516;2024-03-02T04:32:07;9.60;99.90
4530;DHT22;2277;51.626;7.516;2024-03-02T04:34:33;9.50;99.90
4530;DHT22;2277;51.626;7.516;2024-03-02T04:36:59;9.50;99.90
4530;DHT22;2277;51.626;7.516;2024-03-02T04:39:24;9.60;99.90
4530;DHT22;2277;51.626;7.516;2024-03-02T04:41:50;9.50;99.90
4530;DHT22;2277;51.626;7.516;2024-03-02T04:44:15;9.50;99.90
4530;DHT22;2277;51.626;7.516;2024-03-02T04:46:41;9.50;99.90
4530;DHT22;2277;51.626;7.516;2024-03-02T04:49:07;9.60;99.90
4530;DHT22;2277;51.626;7.516;2024-03-02T04:51:32;9.70;99.90
4530;DHT22;2277;51.626;7.516;2024-03-02T04:53:58;9.70;99.90
4530;DHT22;2277;51.626;7.516;2024-03-02T04:56:23;9.80;99.90
4530;DHT22;2277;51.626;7.516;2024-03-02T04:59:05;9.80;99.90
4530;DHT22;2277;51.626;7.516;2024-03-02T05:01:32;9.70;99.90
4530;DHT22;2277;51.626;7.516;2024-03-02T05:03:58;9.60;99.90
4530;DHT22;2277;51.626;7.516;2024-03-02T05:06:24;9.60;99.90
4530;DHT22;2277;51.626;7.516;2024-03-02T05:08:49;9.60;99.90
4530;DHT22;2277;51.626;7.516;2024-03-02T05:11:15;9.70;99.90
4530;DHT22;2277;51.626;7.516;2024-03-02T05:13:59;9.60;99.90
4530;DHT22;2277;51.626;7.516;2024-03-02T05:16:25;9.50;99.90
4530;DHT22;2277;51.626;7.516;2024-03-02T05:18:50;9.40;99.90
4530;DHT22;2277;51.626;7.516;2024-03-02T05:21:16;9.40;99.90
4530;DHT22;2277;51.626;7.516;2024-03-02T05:23:41;9.30;99.90
4530;DHT22;2277;51.626;7.516;2024-03-02T05:26:07;9.40;99.90
4530;DHT22;2277;51.626;7.516;2024-03-02T05:28:33;9.40;99.90
4530;DHT22;2277;51.626;7.516;2024-03-02T05:30:59;9.30;99.90
4530;DHT22;2277;51.626;7.516;2024-03-02T05:33:24;9.30;99.90
4530;DHT22;2277;51.626;7.516;2024-03-02T05:35:50;9.30;99.90
4530;DHT22;2277;51.626;7.516;2024-03-02T05:38:15;9.20;99.90
4530;DHT22;2277;51.626;7.516;2024-03-02T05:40:41;9.30;99.90
4530;DHT22;2277;51.626;7.516;2024-03-02T05:43:06;9.20;99.90
4530;DHT22;2277;51.626;7.516;2024-03-02T05:45:32;9.10;99.90
4530;DHT22;2277;51.626;7.516;2024-03-02T05:47:58;9.10;99.90
4530;DHT22;2277;51.626;7.516;2024-03-02T05:50:23;9.10;99.90
4530;DHT22;2277;51.626;7.516;2024-03-02T05:52:49;9.10;99.90
4530;DHT22;2277;51.626;7.516;2024-03-02T05:55:14;9.00;99.90
4530;DHT22;2277;51.626;7.516;2024-03-02T05:57:40;9.00;99.90
4530;DHT22;2277;51.626;7.516;2024-03-02T06:00:09;9.00;99.90
4530;DHT22;2277;51.626;7.516;2024-03-02T06:02:34;8.90;99.90
4530;DHT22;2277;51.626;7.516;2024-03-02T06:05:03;9.00;99.90
4530;DHT22;2277;51.626;7.516;2024-03-02T06:07:29;8.90;99.90
4530;DHT22;2277;51.626;7.516;2024-03-02T06:09:55;8.90;99.90
4530;DHT22;2277;51.626;7.516;2024-03-02T06:12:20;8.90;99.90
4530;DHT22;2277;51.626;7.516;2024-03-02T06:14:46;8.90;99.90
4530;DHT22;2277;51.626;7.516;2024-03-02T06:17:12;8.90;99.90
4530;DHT22;2277;51.626;7.516;2024-03-02T06:19:37;8.90;99.90
4530;DHT22;2277;51.626;7.516;2024-03-02T06:22:03;8.80;99.90
4530;DHT22;2277;51.626;7.516;2024-03-02T06:24:29;8.80;99.90
4530;DHT22;2277;51.626;7.516;2024-03-02T06:26:54;8.70;99.90
4530;DHT22;2277;51.626;7.516;2024-03-02T06:29:20;8.70;99.90
4530;DHT22;2277;51.626;7.516;2024-03-02T06:31:47;8.70;99.90
4530;DHT22;2277;51.626;7.516;2024-03-02T06:34:12;8.60;99.90
4530;DHT22;2277;51.626;7.516;2024-03-02T06:36:39;8.70;99.90
4530;DHT22;2277;51.626;7.516;2024-03-02T06:39:05;8.60;99.90
4530;DHT22;2277;51.626;7.516;2024-03-02T06:41:31;8.60;99.90
4530;DHT22;2277;51.626;7.516;2024-03-02T06:43:57;8.70;99.90
4530;DHT22;2277;51.626;7.516;2024-03-02T06:46:27;8.70;99.90
4530;DHT22;2277;51.626;7.516;2024-03-02T06:48:53;8.70;99.90
4530;DHT22;2277;51.626;7.516;2024-03-02T06:51:18;8.70;99.90
4530;DHT22;2277;51.626;7.516;2024-03-02T06:53:44;8.90;99.90
4530;DHT22;2277;51.626;7.516;2024-03-02T06:56:10;8.90;99.90
4530;DHT22;2277;51.626;7.516;2024-03-02T06:58:35;8.90;99.90
4530;DHT22;2277;51.626;7.516;2024-03-02T07:01:01;8.90;99.90
4530;DHT22;2277;51.626;7.516;2024-03-02T07:03:26;9.00;99.90
4530;DHT22;2277;51.626;7.516;2024-03-02T07:05:52;9.20;99.90
4530;DHT22;2277;51.626;7.516;2024-03-02T07:08:17;9.20;99.90
4530;DHT22;2277;51.626;7.516;2024-03-02T07:10:43;9.30;99.90
4530;DHT22;2277;51.626;7.516;2024-03-02T07:13:08;9.30;99.90
4530;DHT22;2277;51.626;7.516;2024-03-02T07:15:34;9.30;99.90
4530;DHT22;2277;51.626;7.516;2024-03-02T07:18:15;9.30;99.90
4530;DHT22;2277;51.626;7.516;2024-03-02T07:20:40;9.30;99.90
4530;DHT22;2277;51.626;7.516;2024-03-02T07:23:06;9.20;99.90
4530;DHT22;2277;51.626;7.516;2024-03-02T07:25:32;9.20;99.90
4530;DHT22;2277;51.626;7.516;2024-03-02T07:27:57;9.10;99.90
4530;DHT22;2277;51.626;7.516;2024-03-02T07:30:23;9.10;99.90
4530;DHT22;2277;51.626;7.516;2024-03-02T07:32:50;9.20;99.90
4530;DHT22;2277;51.626;7.516;2024-03-02T07:35:16;9.30;99.90
4530;DHT22;2277;51.626;7.516;2024-03-02T07:37:42;9.40;99.90
4530;DHT22;2277;51.626;7.516;2024-03-02T07:40:08;9.50;99.90
4530;DHT22;2277;51.626;7.516;2024-03-02T07:42:38;9.60;99.90
4530;DHT22;2277;51.626;7.516;2024-03-02T07:45:05;9.70;99.90
4530;DHT22;2277;51.626;7.516;2024-03-02T07:47:34;9.90;99.90
4530;DHT22;2277;51.626;7.516;2024-03-02T07:50:00;10.10;99.90
4530;DHT22;2277;51.626;7.516;2024-03-02T07:52:26;10.20;99.90
4530;DHT22;2277;51.626;7.516;2024-03-02T07:54:51;10.30;99.90
4530;DHT22;2277;51.626;7.516;2024-03-02T07:57:17;10.40;99.90
4530;DHT22;2277;51.626;7.516;2024-03-02T07:59:43;10.50;99.90
4530;DHT22;2277;51.626;7.516;2024-03-02T08:02:08;10.70;99.90
4530;DHT22;2277;51.626;7.516;2024-03-02T08:04:34;10.80;99.90
4530;DHT22;2277;51.626;7.516;2024-03-02T08:07:00;10.90;99.90
4530;DHT22;2277;51.626;7.516;2024-03-02T08:09:25;11.10;99.90
4530;DHT22;2277;51.626;7.516;2024-03-02T08:11:51;11.30;99.90
4530;DHT22;2277;51.626;7.516;2024-03-02T08:14:16;11.50;99.90
4530;DHT22;2277;51.626;7.516;2024-03-02T08:16:42;11.60;99.90
4530;DHT22;2277;51.626;7.516;2024-03-02T08:19:08;11.70;99.90
4530;DHT22;2277;51.626;7.516;2024-03-02T08:21:34;11.80;99.90
4530;DHT22;2277;51.626;7.516;2024-03-02T08:24:02;11.80;99.90
4530;DHT22;2277;51.626;7.516;2024-03-02T08:26:27;11.90;99.90
4530;DHT22;2277;51.626;7.516;2024-03-02T08:28:57;12.10;99.90
4530;DHT22;2277;51.626;7.516;2024-03-02T08:31:23;12.30;99.90
4530;DHT22;2277;51.626;7.516;2024-03-02T08:33:48;12.50;99.90
4530;DHT22;2277;51.626;7.516;2024-03-02T08:36:14;12.60;99.90
4530;DHT22;2277;51.626;7.516;2024-03-02T08:38:41;12.80;99.90
4530;DHT22;2277;51.626;7.516;2024-03-02T08:41:10;12.80;99.90
4530;DHT22;2277;51.626;7.516;2024-03-02T08:43:38;12.90;99.90
4530;DHT22;2277;51.626;7.516;2024-03-02T08:46:05;13.10;99.90
4530;DHT22;2277;51.626;7.516;2024-03-02T08:48:30;13.30;99.90
4530;DHT22;2277;51.626;7.516;2024-03-02T08:50:56;13.40;99.90
4530;DHT22;2277;51.626;7.516;2024-03-02T08:53:21;13.50;99.90
4530;DHT22;2277;51.626;7.516;2024-03-02T08:55:47;13.70;99.90
4530;DHT22;2277;51.626;7.516;2024-03-02T08:58:13;13.80;99.90
4530;DHT22;2277;51.626;7.516;2024-03-02T09:00:39;13.70;99.90
4530;DHT22;2277;51.626;7.516;2024-03-02T09:03:04;13.80;99.90
4530;DHT22;2277;51.626;7.516;2024-03-02T09:05:30;14.00;99.90
4530;DHT22;2277;51.626;7.516;2024-03-02T09:07:55;14.20;99.90
4530;DHT22;2277;51.626;7.516;2024-03-02T09:10:21;14.10;99.90
4530;DHT22;2277;51.626;7.516;2024-03-02T09:12:47;14.40;99.90
4530;DHT22;2277;51.626;7.516;2024-03-02T09:15:12;14.50;99.90
4530;DHT22;2277;51.626;7.516;2024-03-02T09:17:38;14.50;99.90
4530;DHT22;2277;51.626;7.516;2024-03-02T09:20:05;14.70;99.90
4530;DHT22;2277;51.626;7.516;2024-03-02T09:22:30;14.70;99.90
4530;DHT22;2277;51.626;7.516;2024-03-02T09:24:57;14.70;99.90
4530;DHT22;2277;51.626;7.516;2024-03-02T09:27:23;14.80;99.90
4530;DHT22;2277;51.626;7.516;2024-03-02T09:29:49;15.10;99.90
4530;DHT22;2277;51.626;7.516;2024-03-02T09:32:14;15.20;99.90
4530;DHT22;2277;51.626;7.516;2024-03-02T09:34:41;15.10;99.90
4530;DHT22;2277;51.626;7.516;2024-03-02T09:37:07;15.30;99.90
4530;DHT22;2277;51.626;7.516;2024-03-02T09:39:33;15.20;99.90
4530;DHT22;2277;51.626;7.516;2024-03-02T09:42:01;14.80;99.90
4530;DHT22;2277;51.626;7.516;2024-03-02T09:44:29;14.80;99.90
4530;DHT22;2277;51.626;7.516;2024-03-02T09:46:55;14.90;99.90
4530;DHT22;2277;51.626;7.516;2024-03-02T09:49:21;14.90;99.90
4530;DHT22;2277;51.626;7.516;2024-03-02T09:51:48;15.00;99.90
4530;DHT22;2277;51.626;7.516;2024-03-02T09:54:16;15.00;99.90
4530;DHT22;2277;51.626;7.516;2024-03-02T09:56:44;14.70;99.90
4530;DHT22;2277;51.626;7.516;2024-03-02T09:59:09;14.80;99.90
4530;DHT22;2277;51.626;7.516;2024-03-02T10:01:35;14.80;99.90
4530;DHT22;2277;51.626;7.516;2024-03-02T10:04:01;14.90;99.90
4530;DHT22;2277;51.626;7.516;2024-03-02T10:06:28;14.90;99.90
4530;DHT22;2277;51.626;7.516;2024-03-02T10:08:54;15.10;99.90
4530;DHT22;2277;51.626;7.516;2024-03-02T10:11:34;15.30;99.90
4530;DHT22;2277;51.626;7.516;2024-03-02T10:14:08;15.70;99.90
4530;DHT22;2277;51.626;7.516;2024-03-02T10:16:38;15.90;99.90
4530;DHT22;2277;51.626;7.516;2024-03-02T10:19:24;16.20;99.90
4530;DHT22;2277;51.626;7.516;2024-03-02T10:21:54;16.30;99.90
4530;DHT22;2277;51.626;7.516;2024-03-02T10:24:22;16.10;99.90
4530;DHT22;2277;51.626;7.516;2024-03-02T10:26:48;16.10;99.90
4530;DHT22;2277;51.626;7.516;2024-03-02T10:29:14;16.40;99.90
4530;DHT22;2277;51.626;7.516;2024-03-02T10:31:44;16.60;99.90
4530;DHT22;2277;51.626;7.516;2024-03-02T10:34:11;16.90;99.90
4530;DHT22;2277;51.626;7.516;2024-03-02T10:36:41;16.60;99.90
4530;DHT22;2277;51.626;7.516;2024-03-02T10:39:07;16.80;99.90
4530;DHT22;2277;51.626;7.516;2024-03-02T10:41:35;16.60;99.90
4530;DHT22;2277;51.626;7.516;2024-03-02T10:44:04;16.10;99.90
4530;DHT22;2277;51.626;7.516;2024-03-02T10:46:32;16.20;99.90
4530;DHT22;2277;51.626;7.516;2024-03-02T10:48:59;16.40;99.90
4530;DHT22;2277;51.626;7.516;2024-03-02T10:51:26;16.70;99.90
4530;DHT22;2277;51.626;7.516;2024-03-02T10:53:53;17.10;99.90
4530;DHT22;2277;51.626;7.516;2024-03-02T10:56:28;17.20;99.90
4530;DHT22;2277;51.626;7.516;2024-03-02T11:01:47;17.50;99.90
4530;DHT22;2277;51.626;7.516;2024-03-02T11:04:13;17.40;98.50
4530;DHT22;2277;51.626;7.516;2024-03-02T11:06:49;17.10;98.90
4530;DHT22;2277;51.626;7.516;2024-03-02T11:09:18;17.10;98.90
4530;DHT22;2277;51.626;7.516;2024-03-02T11:11:45;16.90;99.80
4530;DHT22;2277;51.626;7.516;2024-03-02T11:14:16;17.10;99.60
4530;DHT22;2277;51.626;7.516;2024-03-02T11:16:42;17.30;98.80
4530;DHT22;2277;51.626;7.516;2024-03-02T11:19:13;17.50;98.90
4530;DHT22;2277;51.626;7.516;2024-03-02T11:21:39;17.80;98.00
4530;DHT22;2277;51.626;7.516;2024-03-02T11:24:37;17.80;97.20
4530;DHT22;2277;51.626;7.516;2024-03-02T11:27:04;17.50;96.10
4530;DHT22;2277;51.626;7.516;2024-03-02T11:34:34;17.70;96.20
4530;DHT22;2277;51.626;7.516;2024-03-02T11:37:01;17.70;96.40
4530;DHT22;2277;51.626;7.516;2024-03-02T11:39:30;17.90;95.70
4530;DHT22;2277;51.626;7.516;2024-03-02T11:41:56;18.30;95.50
4530;DHT22;2277;51.626;7.516;2024-03-02T11:44:26;18.40;94.00
4530;DHT22;2277;51.626;7.516;2024-03-02T11:47:02;18.50;93.80
4530;DHT22;2277;51.626;7.516;2024-03-02T11:52:12;18.90;91.80
4530;DHT22;2277;51.626;7.516;2024-03-02T11:54:40;18.50;92.10
4530;DHT22;2277;51.626;7.516;2024-03-02T11:57:14;18.70;91.90
4530;DHT22;2277;51.626;7.516;2024-03-02T11:59:41;19.10;91.50
4530;DHT22;2277;51.626;7.516;2024-03-02T12:02:06;19.30;91.70
4530;DHT22;2277;51.626;7.516;2024-03-02T12:04:38;19.50;90.80
4530;DHT22;2277;51.626;7.516;2024-03-02T12:07:03;19.80;90.70
4530;DHT22;2277;51.626;7.516;2024-03-02T12:09:29;19.80;88.00
4530;DHT22;2277;51.626;7.516;2024-03-02T12:12:08;19.30;88.10
4530;DHT22;2277;51.626;7.516;2024-03-02T12:14:37;19.30;90.60
4530;DHT22;2277;51.626;7.516;2024-03-02T12:17:03;19.60;88.90
4530;DHT22;2277;51.626;7.516;2024-03-02T12:19:30;19.60;90.10
4530;DHT22;2277;51.626;7.516;2024-03-02T12:22:00;19.30;89.50
4530;DHT22;2277;51.626;7.516;2024-03-02T12:24:29;18.60;88.60
4530;DHT22;2277;51.626;7.516;2024-03-02T12:26:55;18.50;90.50
4530;DHT22;2277;51.626;7.516;2024-03-02T12:29:21;18.40;90.60
4530;DHT22;2277;51.626;7.516;2024-03-02T12:31:51;18.50;90.90
4530;DHT22;2277;51.626;7.516;2024-03-02T12:34:18;18.80;90.70
4530;DHT22;2277;51.626;7.516;2024-03-02T12:36:47;19.20;88.40
4530;DHT22;2277;51.626;7.516;2024-03-02T12:39:16;19.00;88.10
4530;DHT22;2277;51.626;7.516;2024-03-02T12:41:42;19.10;88.20
4530;DHT22;2277;51.626;7.516;2024-03-02T12:44:08;19.30;88.20
4530;DHT22;2277;51.626;7.516;2024-03-02T12:46:34;19.40;88.90
4530;DHT22;2277;51.626;7.516;2024-03-02T12:49:10;19.60;87.20
4530;DHT22;2277;51.626;7.516;2024-03-02T12:51:37;19.60;85.60
4530;DHT22;2277;51.626;7.516;2024-03-02T12:54:03;19.60;86.60
4530;DHT22;2277;51.626;7.516;2024-03-02T12:56:30;19.60;86.40
4530;DHT22;2277;51.626;7.516;2024-03-02T12:58:56;19.50;86.00
4530;DHT22;2277;51.626;7.516;2024-03-02T13:01:21;19.40;86.70
4530;DHT22;2277;51.626;7.516;2024-03-02T13:03:51;19.10;87.40
4530;DHT22;2277;51.626;7.516;2024-03-02T13:06:17;18.70;87.50
4530;DHT22;2277;51.626;7.516;2024-03-02T13:08:44;18.30;87.80
4530;DHT22;2277;51.626;7.516;2024-03-02T13:11:10;18.30;89.60
4530;DHT22;2277;51.626;7.516;2024-03-02T13:13:35;17.80;89.60
4530;DHT22;2277;51.626;7.516;2024-03-02T13:16:01;17.60;90.40
4530;DHT22;2277;51.626;7.516;2024-03-02T13:18:29;17.90;90.50
4530;DHT22;2277;51.626;7.516;2024-03-02T13:20:54;18.00;90.80
4530;DHT22;2277;51.626;7.516;2024-03-02T13:23:21;18.00;90.70
4530;DHT22;2277;51.626;7.516;2024-03-02T13:25:47;17.90;90.90
4530;DHT22;2277;51.626;7.516;2024-03-02T13:28:13;17.60;90.60
4530;DHT22;2277;51.626;7.516;2024-03-02T13:30:38;17.10;91.30
4530;DHT22;2277;51.626;7.516;2024-03-02T13:33:04;16.90;91.90
4530;DHT22;2277;51.626;7.516;2024-03-02T13:35:30;16.70;92.60
4530;DHT22;2277;51.626;7.516;2024-03-02T13:37:55;17.00;92.80
4530;DHT22;2277;51.626;7.516;2024-03-02T13:40:21;16.80;92.90
4530;DHT22;2277;51.626;7.516;2024-03-02T13:42:47;16.90;92.70
4530;DHT22;2277;51.626;7.516;2024-03-02T13:45:13;16.70;92.90
4530;DHT22;2277;51.626;7.516;2024-03-02T13:47:39;16.60;92.60
4530;DHT22;2277;51.626;7.516;2024-03-02T13:50:04;16.50;93.00
4530;DHT22;2277;51.626;7.516;2024-03-02T13:52:31;16.40;93.20
4530;DHT22;2277;51.626;7.516;2024-03-02T13:54:57;16.30;93.50
4530;DHT22;2277;51.626;7.516;2024-03-02T13:57:22;16.30;93.90
4530;DHT22;2277;51.626;7.516;2024-03-02T13:59:48;16.20;93.50
4530;DHT22;2277;51.626;7.516;2024-03-02T14:02:15;16.10;93.70
4530;DHT22;2277;51.626;7.516;2024-03-02T14:04:41;16.00;94.20
4530;DHT22;2277;51.626;7.516;2024-03-02T14:07:07;16.10;94.20
4530;DHT22;2277;51.626;7.516;2024-03-02T14:09:33;16.10;94.40
4530;DHT22;2277;51.626;7.516;2024-03-02T14:11:58;16.10;94.40
4530;DHT22;2277;51.626;7.516;2024-03-02T14:14:26;16.10;94.70
4530;DHT22;2277;51.626;7.516;2024-03-02T14:16:52;16.20;94.90
4530;DHT22;2277;51.626;7.516;2024-03-02T14:19:19;16.10;94.30
4530;DHT22;2277;51.626;7.516;2024-03-02T14:21:45;16.10;94.80
4530;DHT22;2277;51.626;7.516;2024-03-02T14:24:11;16.10;95.30
4530;DHT22;2277;51.626;7.516;2024-03-02T14:26:37;16.20;95.30
4530;DHT22;2277;51.626;7.516;2024-03-02T14:29:03;16.20;95.30
4530;DHT22;2277;51.626;7.516;2024-03-02T14:31:29;16.00;95.30
4530;DHT22;2277;51.626;7.516;2024-03-02T14:33:54;15.90;95.50
4530;DHT22;2277;51.626;7.516;2024-03-02T14:36:20;15.80;96.20
4530;DHT22;2277;51.626;7.516;2024-03-02T14:38:46;15.90;96.00
4530;DHT22;2277;51.626;7.516;2024-03-02T14:41:12;15.80;96.10
4530;DHT22;2277;51.626;7.516;2024-03-02T14:43:38;15.80;96.50
4530;DHT22;2277;51.626;7.516;2024-03-02T14:46:04;15.90;96.30
4530;DHT22;2277;51.626;7.516;2024-03-02T14:48:30;15.80;95.70
4530;DHT22;2277;51.626;7.516;2024-03-02T14:50:57;15.70;95.70
4530;DHT22;2277;51.626;7.516;2024-03-02T14:53:22;15.80;96.00
4530;DHT22;2277;51.626;7.516;2024-03-02T14:55:48;15.80;96.00
4530;DHT22;2277;51.626;7.516;2024-03-02T14:58:15;15.80;96.70
4530;DHT22;2277;51.626;7.516;2024-03-02T15:00:41;16.00;96.70
4530;DHT22;2277;51.626;7.516;2024-03-02T15:03:07;16.10;96.10
4530;DHT22;2277;51.626;7.516;2024-03-02T15:05:34;16.30;96.10
4530;DHT22;2277;51.626;7.516;2024-03-02T15:08:00;16.00;96.10
4530;DHT22;2277;51.626;7.516;2024-03-02T15:10:28;16.00;97.30
4530;DHT22;2277;51.626;7.516;2024-03-02T15:12:53;15.90;97.20
4530;DHT22;2277;51.626;7.516;2024-03-02T15:15:19;15.90;97.60
4530;DHT22;2277;51.626;7.516;2024-03-02T15:17:44;15.80;97.90
4530;DHT22;2277;51.626;7.516;2024-03-02T15:20:10;15.90;98.20
4530;DHT22;2277;51.626;7.516;2024-03-02T15:22:36;15.70;97.90
4530;DHT22;2277;51.626;7.516;2024-03-02T15:25:02;15.80;98.20
4530;DHT22;2277;51.626;7.516;2024-03-02T15:27:27;15.70;98.30
4530;DHT22;2277;51.626;7.516;2024-03-02T15:29:53;15.80;98.80
4530;DHT22;2277;51.626;7.516;2024-03-02T15:32:20;15.80;99.40
4530;DHT22;2277;51.626;7.516;2024-03-02T15:34:46;15.70;99.00
4530;DHT22;2277;51.626;7.516;2024-03-02T15:37:12;15.60;99.00
4530;DHT22;2277;51.626;7.516;2024-03-02T15:39:37;15.70;99.10
4530;DHT22;2277;51.626;7.516;2024-03-02T15:42:03;15.60;99.30
4530;DHT22;2277;51.626;7.516;2024-03-02T15:44:30;15.60;99.40
4530;DHT22;2277;51.626;7.516;2024-03-02T15:46:56;15.60;99.20
4530;DHT22;2277;51.626;7.516;2024-03-02T15:49:21;15.60;99.20
4530;DHT22;2277;51.626;7.516;2024-03-02T15:51:47;15.60;99.40
4530;DHT22;2277;51.626;7.516;2024-03-02T15:54:13;15.70;99.00
4530;DHT22;2277;51.626;7.516;2024-03-02T15:56:39;15.70;99.10
4530;DHT22;2277;51.626;7.516;2024-03-02T15:59:05;15.70;99.30
4530;DHT22;2277;51.626;7.516;2024-03-02T16:01:31;15.70;98.80
4530;DHT22;2277;51.626;7.516;2024-03-02T16:03:57;15.60;99.60
4530;DHT22;2277;51.626;7.516;2024-03-02T16:06:22;15.70;99.50
4530;DHT22;2277;51.626;7.516;2024-03-02T16:08:48;15.70;99.10
4530;DHT22;2277;51.626;7.516;2024-03-02T16:11:14;15.50;98.90
4530;DHT22;2277;51.626;7.516;2024-03-02T16:13:39;15.50;98.50
4530;DHT22;2277;51.626;7.516;2024-03-02T16:16:05;15.40;98.60
4530;DHT22;2277;51.626;7.516;2024-03-02T16:18:30;15.50;98.50